sensor_id;sensor_type;location;lat;lon;timestamp;P1;durP1;ratioP1;P2;durP2;ratioP2
46407;SDS011;32110;45.724;21.276;2023-04-04T00:02:05;6.20;;;3.97;;
46407;SDS011;32110;45.724;21.276;2023-04-04T00:04:31;9.00;;;3.53;;
46407;SDS011;32110;45.724;21.276;2023-04-04T00:06:56;7.77;;;4.27;;
46407;SDS011;32110;45.724;21.276;2023-04-04T00:09:21;8.10;;;3.97;;
46407;SDS011;32110;45.724;21.276;2023-04-04T00:11:47;7.70;;;3.67;;
46407;SDS011;32110;45.724;21.276;2023-04-04T00:14:12;11.47;;;4.97;;
46407;SDS011;32110;45.724;21.276;2023-04-04T00:16:37;9.02;;;4.10;;
46407;SDS011;32110;45.724;21.276;2023-04-04T00:19:02;8.10;;;4.00;;
46407;SDS011;32110;45.724;21.276;2023-04-04T00:21:28;7.93;;;4.03;;
46407;SDS011;32110;45.724;21.276;2023-04-04T00:23:54;7.65;;;3.92;;
46407;SDS011;32110;45.724;21.276;2023-04-04T00:26:19;7.70;;;4.30;;
46407;SDS011;32110;45.724;21.276;2023-04-04T00:28:45;9.90;;;4.50;;
46407;SDS011;32110;45.724;21.276;2023-04-04T00:31:11;9.32;;;4.70;;
46407;SDS011;32110;45.724;21.276;2023-04-04T00:33:36;7.13;;;4.32;;
46407;SDS011;32110;45.724;21.276;2023-04-04T00:36:01;8.23;;;4.40;;
46407;SDS011;32110;45.724;21.276;2023-04-04T00:38:26;8.03;;;3.50;;
46407;SDS011;32110;45.724;21.276;2023-04-04T00:40:53;8.18;;;4.30;;
46407;SDS011;32110;45.724;21.276;2023-04-04T00:43:19;7.88;;;4.47;;
46407;SDS011;32110;45.724;21.276;2023-04-04T00:45:45;6.32;;;4.20;;
46407;SDS011;32110;45.724;21.276;2023-04-04T00:48:10;6.65;;;3.47;;
46407;SDS011;32110;45.724;21.276;2023-04-04T00:50:36;9.48;;;4.50;;
46407;SDS011;32110;45.724;21.276;2023-04-04T00:53:01;7.67;;;4.33;;
46407;SDS011;32110;45.724;21.276;2023-04-04T00:55:26;9.97;;;5.50;;
46407;SDS011;32110;45.724;21.276;2023-04-04T00:57:51;7.20;;;4.13;;
46407;SDS011;32110;45.724;21.276;2023-04-04T01:00:17;10.05;;;4.22;;
46407;SDS011;32110;45.724;21.276;2023-04-04T01:02:42;10.38;;;4.35;;
46407;SDS011;32110;45.724;21.276;2023-04-04T01:05:08;13.35;;;5.72;;
46407;SDS011;32110;45.724;21.276;2023-04-04T01:07:34;11.98;;;5.15;;
46407;SDS011;32110;45.724;21.276;2023-04-04T01:10:00;10.27;;;4.65;;
46407;SDS011;32110;45.724;21.276;2023-04-04T01:12:28;9.45;;;4.75;;
46407;SDS011;32110;45.724;21.276;2023-04-04T01:14:53;9.85;;;5.13;;
46407;SDS011;32110;45.724;21.276;2023-04-04T01:17:18;9.57;;;4.77;;
46407;SDS011;32110;45.724;21.276;2023-04-04T01:19:58;11.93;;;5.03;;
46407;SDS011;32110;45.724;21.276;2023-04-04T01:22:26;8.13;;;4.40;;
46407;SDS011;32110;45.724;21.276;2023-04-04T01:24:51;8.55;;;5.10;;
46407;SDS011;32110;45.724;21.276;2023-04-04T01:27:19;9.88;;;4.85;;
46407;SDS011;32110;45.724;21.276;2023-04-04T01:29:44;9.50;;;4.73;;
46407;SDS011;32110;45.724;21.276;2023-04-04T01:32:20;9.90;;;4.73;;
46407;SDS011;32110;45.724;21.276;2023-04-04T01:37:54;10.23;;;5.25;;
46407;SDS011;32110;45.724;21.276;2023-04-04T01:40:17;10.75;;;5.13;;
46407;SDS011;32110;45.724;21.276;2023-04-04T01:42:45;10.55;;;4.57;;
46407;SDS011;32110;45.724;21.276;2023-04-04T01:45:11;9.18;;;4.50;;
46407;SDS011;32110;45.724;21.276;2023-04-04T01:47:40;7.93;;;4.53;;
46407;SDS011;32110;45.724;21.276;2023-04-04T01:50:07;10.55;;;5.47;;
46407;SDS011;32110;45.724;21.276;2023-04-04T01:52:33;10.88;;;4.90;;
46407;SDS011;32110;45.724;21.276;2023-04-04T01:54:59;9.75;;;4.82;;
46407;SDS011;32110;45.724;21.276;2023-04-04T01:57:25;8.50;;;4.47;;
46407;SDS011;32110;45.724;21.276;2023-04-04T01:59:50;9.30;;;4.97;;
46407;SDS011;32110;45.724;21.276;2023-04-04T02:02:16;9.60;;;5.45;;
46407;SDS011;32110;45.724;21.276;2023-04-04T02:04:41;10.73;;;5.10;;
46407;SDS011;32110;45.724;21.276;2023-04-04T02:07:07;11.02;;;5.75;;
46407;SDS011;32110;45.724;21.276;2023-04-04T02:09:32;9.95;;;5.00;;
46407;SDS011;32110;45.724;21.276;2023-04-04T02:11:58;9.25;;;4.40;;
46407;SDS011;32110;45.724;21.276;2023-04-04T02:14:23;7.90;;;4.05;;
46407;SDS011;32110;45.724;21.276;2023-04-04T02:16:49;7.80;;;3.95;;
46407;SDS011;32110;45.724;21.276;2023-04-04T02:19:14;15.10;;;5.53;;
46407;SDS011;32110;45.724;21.276;2023-04-04T02:21:40;9.55;;;5.07;;
46407;SDS011;32110;45.724;21.276;2023-04-04T02:24:05;14.30;;;6.10;;
46407;SDS011;32110;45.724;21.276;2023-04-04T02:26:30;9.35;;;4.45;;
46407;SDS011;32110;45.724;21.276;2023-04-04T02:28:56;9.60;;;5.03;;
46407;SDS011;32110;45.724;21.276;2023-04-04T02:31:21;10.40;;;5.18;;
46407;SDS011;32110;45.724;21.276;2023-04-04T02:33:46;9.90;;;5.28;;
46407;SDS011;32110;45.724;21.276;2023-04-04T02:36:12;11.70;;;5.33;;
46407;SDS011;32110;45.724;21.276;2023-04-04T02:38:37;11.25;;;5.20;;
46407;SDS011;32110;45.724;21.276;2023-04-04T02:41:03;8.73;;;5.15;;
46407;SDS011;32110;45.724;21.276;2023-04-04T02:43:28;11.20;;;5.37;;
46407;SDS011;32110;45.724;21.276;2023-04-04T02:45:53;11.53;;;5.17;;
46407;SDS011;32110;45.724;21.276;2023-04-04T02:48:18;11.25;;;5.80;;
46407;SDS011;32110;45.724;21.276;2023-04-04T02:50:45;8.65;;;4.35;;
46407;SDS011;32110;45.724;21.276;2023-04-04T02:53:11;10.05;;;5.57;;
46407;SDS011;32110;45.724;21.276;2023-04-04T02:55:36;12.00;;;5.22;;
46407;SDS011;32110;45.724;21.276;2023-04-04T02:58:01;11.80;;;5.17;;
46407;SDS011;32110;45.724;21.276;2023-04-04T03:00:27;9.82;;;4.85;;
46407;SDS011;32110;45.724;21.276;2023-04-04T03:02:53;8.80;;;4.32;;
46407;SDS011;32110;45.724;21.276;2023-04-04T03:05:18;10.95;;;5.55;;
46407;SDS011;32110;45.724;21.276;2023-04-04T03:07:44;11.50;;;5.63;;
46407;SDS011;32110;45.724;21.276;2023-04-04T03:10:09;8.52;;;4.35;;
46407;SDS011;32110;45.724;21.276;2023-04-04T03:12:35;10.27;;;5.07;;
46407;SDS011;32110;45.724;21.276;2023-04-04T03:15:00;9.80;;;5.10;;
46407;SDS011;32110;45.724;21.276;2023-04-04T03:17:26;8.63;;;4.90;;
46407;SDS011;32110;45.724;21.276;2023-04-04T03:19:51;8.68;;;4.93;;
46407;SDS011;32110;45.724;21.276;2023-04-04T03:22:16;10.00;;;5.10;;
46407;SDS011;32110;45.724;21.276;2023-04-04T03:24:42;10.20;;;5.43;;
46407;SDS011;32110;45.724;21.276;2023-04-04T03:27:07;8.67;;;4.77;;
46407;SDS011;32110;45.724;21.276;2023-04-04T03:29:33;9.38;;;5.18;;
46407;SDS011;32110;45.724;21.276;2023-04-04T03:31:58;8.43;;;4.68;;
46407;SDS011;32110;45.724;21.276;2023-04-04T03:34:23;10.17;;;5.80;;
46407;SDS011;32110;45.724;21.276;2023-04-04T03:36:49;8.50;;;4.73;;
46407;SDS011;32110;45.724;21.276;2023-04-04T03:39:15;14.00;;;5.50;;
46407;SDS011;32110;45.724;21.276;2023-04-04T03:41:41;10.15;;;5.65;;
46407;SDS011;32110;45.724;21.276;2023-04-04T03:44:06;7.73;;;4.40;;
46407;SDS011;32110;45.724;21.276;2023-04-04T03:46:31;8.80;;;5.13;;
46407;SDS011;32110;45.724;21.276;2023-04-04T03:48:56;10.52;;;5.85;;
46407;SDS011;32110;45.724;21.276;2023-04-04T03:51:24;9.02;;;5.07;;
46407;SDS011;32110;45.724;21.276;2023-04-04T03:53:49;8.95;;;4.90;;
46407;SDS011;32110;45.724;21.276;2023-04-04T03:56:15;13.70;;;6.15;;
46407;SDS011;32110;45.724;21.276;2023-04-04T03:58:40;11.45;;;5.78;;
46407;SDS011;32110;45.724;21.276;2023-04-04T04:01:05;9.67;;;5.13;;
46407;SDS011;32110;45.724;21.276;2023-04-04T04:03:31;11.02;;;5.07;;
46407;SDS011;32110;45.724;21.276;2023-04-04T04:05:56;10.27;;;5.73;;
46407;SDS011;32110;45.724;21.276;2023-04-04T04:08:21;11.70;;;5.33;;
46407;SDS011;32110;45.724;21.276;2023-04-04T04:10:47;8.52;;;4.75;;
46407;SDS011;32110;45.724;21.276;2023-04-04T04:13:12;12.32;;;5.50;;
46407;SDS011;32110;45.724;21.276;2023-04-04T04:15:37;9.73;;;5.32;;
46407;SDS011;32110;45.724;21.276;2023-04-04T04:18:03;10.23;;;5.13;;
46407;SDS011;32110;45.724;21.276;2023-04-04T04:20:28;7.70;;;4.68;;
46407;SDS011;32110;45.724;21.276;2023-04-04T04:22:53;11.00;;;4.90;;
46407;SDS011;32110;45.724;21.276;2023-04-04T04:25:19;10.52;;;5.82;;
46407;SDS011;32110;45.724;21.276;2023-04-04T04:27:44;7.85;;;4.03;;
46407;SDS011;32110;45.724;21.276;2023-04-04T04:30:10;9.57;;;4.82;;
46407;SDS011;32110;45.724;21.276;2023-04-04T04:32:36;8.52;;;4.95;;
46407;SDS011;32110;45.724;21.276;2023-04-04T04:35:02;9.93;;;4.60;;
46407;SDS011;32110;45.724;21.276;2023-04-04T04:37:27;9.25;;;5.10;;
46407;SDS011;32110;45.724;21.276;2023-04-04T04:39:53;8.30;;;4.97;;
46407;SDS011;32110;45.724;21.276;2023-04-04T04:42:18;11.15;;;6.13;;
46407;SDS011;32110;45.724;21.276;2023-04-04T04:44:45;10.13;;;5.35;;
46407;SDS011;32110;45.724;21.276;2023-04-04T04:47:10;10.00;;;5.45;;
46407;SDS011;32110;45.724;21.276;2023-04-04T04:49:35;9.95;;;5.32;;
46407;SDS011;32110;45.724;21.276;2023-04-04T04:52:01;10.53;;;5.23;;
46407;SDS011;32110;45.724;21.276;2023-04-04T04:54:26;12.20;;;6.28;;
46407;SDS011;32110;45.724;21.276;2023-04-04T04:56:52;13.05;;;6.68;;
46407;SDS011;32110;45.724;21.276;2023-04-04T04:59:17;14.13;;;6.53;;
46407;SDS011;32110;45.724;21.276;2023-04-04T05:01:43;10.70;;;5.73;;
46407;SDS011;32110;45.724;21.276;2023-04-04T05:04:08;11.73;;;6.17;;
46407;SDS011;32110;45.724;21.276;2023-04-04T05:06:33;15.40;;;6.77;;
46407;SDS011;32110;45.724;21.276;2023-04-04T05:08:58;18.50;;;6.27;;
46407;SDS011;32110;45.724;21.276;2023-04-04T05:11:24;13.43;;;6.25;;
46407;SDS011;32110;45.724;21.276;2023-04-04T05:13:50;12.20;;;6.32;;
46407;SDS011;32110;45.724;21.276;2023-04-04T05:16:15;9.73;;;5.23;;
46407;SDS011;32110;45.724;21.276;2023-04-04T05:18:40;12.27;;;5.47;;
46407;SDS011;32110;45.724;21.276;2023-04-04T05:21:05;11.03;;;5.83;;
46407;SDS011;32110;45.724;21.276;2023-04-04T05:23:31;11.43;;;6.00;;
46407;SDS011;32110;45.724;21.276;2023-04-04T05:25:56;11.10;;;5.18;;
46407;SDS011;32110;45.724;21.276;2023-04-04T05:28:22;10.85;;;5.63;;
46407;SDS011;32110;45.724;21.276;2023-04-04T05:30:47;8.93;;;4.68;;
46407;SDS011;32110;45.724;21.276;2023-04-04T05:33:12;10.52;;;5.43;;
46407;SDS011;32110;45.724;21.276;2023-04-04T05:35:38;10.93;;;5.60;;
46407;SDS011;32110;45.724;21.276;2023-04-04T05:38:05;12.52;;;5.40;;
46407;SDS011;32110;45.724;21.276;2023-04-04T05:40:30;10.77;;;5.90;;
46407;SDS011;32110;45.724;21.276;2023-04-04T05:42:56;13.32;;;5.65;;
46407;SDS011;32110;45.724;21.276;2023-04-04T05:45:21;11.50;;;5.57;;
46407;SDS011;32110;45.724;21.276;2023-04-04T05:47:47;13.25;;;5.93;;
46407;SDS011;32110;45.724;21.276;2023-04-04T05:50:12;14.00;;;5.93;;
46407;SDS011;32110;45.724;21.276;2023-04-04T05:52:38;12.27;;;5.40;;
46407;SDS011;32110;45.724;21.276;2023-04-04T05:55:03;9.63;;;5.17;;
46407;SDS011;32110;45.724;21.276;2023-04-04T05:57:28;11.10;;;5.53;;
46407;SDS011;32110;45.724;21.276;2023-04-04T05:59:54;13.40;;;5.70;;
46407;SDS011;32110;45.724;21.276;2023-04-04T06:02:19;15.97;;;6.87;;
46407;SDS011;32110;45.724;21.276;2023-04-04T06:04:44;15.02;;;6.68;;
46407;SDS011;32110;45.724;21.276;2023-04-04T06:07:10;17.77;;;6.22;;
46407;SDS011;32110;45.724;21.276;2023-04-04T06:09:35;20.52;;;6.80;;
46407;SDS011;32110;45.724;21.276;2023-04-04T06:12:00;12.17;;;6.03;;
46407;SDS011;32110;45.724;21.276;2023-04-04T06:14:26;13.52;;;6.60;;
46407;SDS011;32110;45.724;21.276;2023-04-04T06:16:51;12.82;;;6.32;;
46407;SDS011;32110;45.724;21.276;2023-04-04T06:19:16;11.87;;;6.30;;
46407;SDS011;32110;45.724;21.276;2023-04-04T06:21:41;10.83;;;5.50;;
46407;SDS011;32110;45.724;21.276;2023-04-04T06:24:07;11.18;;;5.15;;
46407;SDS011;32110;45.724;21.276;2023-04-04T06:26:32;11.67;;;5.60;;
46407;SDS011;32110;45.724;21.276;2023-04-04T06:28:57;11.53;;;5.43;;
46407;SDS011;32110;45.724;21.276;2023-04-04T06:31:22;11.50;;;5.70;;
46407;SDS011;32110;45.724;21.276;2023-04-04T06:33:48;12.13;;;5.50;;
46407;SDS011;32110;45.724;21.276;2023-04-04T06:36:13;12.50;;;6.03;;
46407;SDS011;32110;45.724;21.276;2023-04-04T06:38:38;11.75;;;5.65;;
46407;SDS011;32110;45.724;21.276;2023-04-04T06:41:04;10.63;;;5.63;;
46407;SDS011;32110;45.724;21.276;2023-04-04T06:43:29;13.43;;;5.70;;
46407;SDS011;32110;45.724;21.276;2023-04-04T06:45:54;12.70;;;6.20;;
46407;SDS011;32110;45.724;21.276;2023-04-04T06:48:19;9.93;;;5.20;;
46407;SDS011;32110;45.724;21.276;2023-04-04T06:50:45;10.70;;;5.43;;
46407;SDS011;32110;45.724;21.276;2023-04-04T06:53:11;10.63;;;5.32;;
46407;SDS011;32110;45.724;21.276;2023-04-04T06:55:37;8.60;;;5.00;;
46407;SDS011;32110;45.724;21.276;2023-04-04T06:58:02;13.18;;;6.00;;
46407;SDS011;32110;45.724;21.276;2023-04-04T07:00:27;13.37;;;6.00;;
46407;SDS011;32110;45.724;21.276;2023-04-04T07:02:56;15.43;;;6.83;;
46407;SDS011;32110;45.724;21.276;2023-04-04T07:05:23;10.27;;;5.38;;
46407;SDS011;32110;45.724;21.276;2023-04-04T07:07:50;11.05;;;6.28;;
46407;SDS011;32110;45.724;21.276;2023-04-04T07:10:16;10.70;;;5.70;;
46407;SDS011;32110;45.724;21.276;2023-04-04T07:12:41;11.10;;;5.60;;
46407;SDS011;32110;45.724;21.276;2023-04-04T07:15:07;11.90;;;5.77;;
46407;SDS011;32110;45.724;21.276;2023-04-04T07:17:35;12.65;;;5.43;;
46407;SDS011;32110;45.724;21.276;2023-04-04T07:20:01;10.68;;;6.03;;
46407;SDS011;32110;45.724;21.276;2023-04-04T07:22:26;11.80;;;6.38;;
46407;SDS011;32110;45.724;21.276;2023-04-04T07:24:52;11.68;;;5.70;;
46407;SDS011;32110;45.724;21.276;2023-04-04T07:27:18;12.18;;;6.13;;
46407;SDS011;32110;45.724;21.276;2023-04-04T07:29:43;11.23;;;6.00;;
46407;SDS011;32110;45.724;21.276;2023-04-04T07:32:09;10.73;;;5.72;;
46407;SDS011;32110;45.724;21.276;2023-04-04T07:34:34;11.13;;;5.90;;
46407;SDS011;32110;45.724;21.276;2023-04-04T07:36:59;10.70;;;5.53;;
46407;SDS011;32110;45.724;21.276;2023-04-04T07:39:24;12.90;;;5.97;;
46407;SDS011;32110;45.724;21.276;2023-04-04T07:41:50;12.40;;;5.70;;
46407;SDS011;32110;45.724;21.276;2023-04-04T07:44:15;15.35;;;7.55;;
46407;SDS011;32110;45.724;21.276;2023-04-04T07:46:41;12.02;;;6.00;;
46407;SDS011;32110;45.724;21.276;2023-04-04T07:49:06;12.07;;;6.07;;
46407;SDS011;32110;45.724;21.276;2023-04-04T07:51:32;10.43;;;5.60;;
46407;SDS011;32110;45.724;21.276;2023-04-04T07:53:59;13.65;;;6.68;;
46407;SDS011;32110;45.724;21.276;2023-04-04T07:56:25;20.40;;;7.82;;
46407;SDS011;32110;45.724;21.276;2023-04-04T07:58:51;12.75;;;6.80;;
46407;SDS011;32110;45.724;21.276;2023-04-04T08:01:16;10.32;;;5.82;;
46407;SDS011;32110;45.724;21.276;2023-04-04T08:03:41;19.57;;;7.20;;
46407;SDS011;32110;45.724;21.276;2023-04-04T08:06:07;16.77;;;7.03;;
46407;SDS011;32110;45.724;21.276;2023-04-04T08:08:32;14.73;;;6.83;;
46407;SDS011;32110;45.724;21.276;2023-04-04T08:10:57;12.37;;;5.30;;
46407;SDS011;32110;45.724;21.276;2023-04-04T08:13:22;16.50;;;6.83;;
46407;SDS011;32110;45.724;21.276;2023-04-04T08:15:48;13.52;;;6.30;;
46407;SDS011;32110;45.724;21.276;2023-04-04T08:18:13;17.67;;;6.03;;
46407;SDS011;32110;45.724;21.276;2023-04-04T08:20:39;19.17;;;7.05;;
46407;SDS011;32110;45.724;21.276;2023-04-04T08:23:04;24.95;;;8.45;;
46407;SDS011;32110;45.724;21.276;2023-04-04T08:25:30;17.13;;;5.87;;
46407;SDS011;32110;45.724;21.276;2023-04-04T08:27:55;12.65;;;6.40;;
46407;SDS011;32110;45.724;21.276;2023-04-04T08:30:21;22.45;;;7.75;;
46407;SDS011;32110;45.724;21.276;2023-04-04T08:32:46;26.73;;;8.30;;
46407;SDS011;32110;45.724;21.276;2023-04-04T08:35:12;22.45;;;8.40;;
46407;SDS011;32110;45.724;21.276;2023-04-04T08:37:38;17.85;;;7.80;;
46407;SDS011;32110;45.724;21.276;2023-04-04T08:40:04;16.80;;;7.50;;
46407;SDS011;32110;45.724;21.276;2023-04-04T08:42:31;16.08;;;6.93;;
46407;SDS011;32110;45.724;21.276;2023-04-04T08:44:58;13.63;;;6.50;;
46407;SDS011;32110;45.724;21.276;2023-04-04T08:47:25;13.00;;;6.55;;
46407;SDS011;32110;45.724;21.276;2023-04-04T08:49:54;14.75;;;7.97;;
46407;SDS011;32110;45.724;21.276;2023-04-04T08:52:20;25.23;;;9.40;;
46407;SDS011;32110;45.724;21.276;2023-04-04T08:54:46;21.88;;;9.45;;
46407;SDS011;32110;45.724;21.276;2023-04-04T08:57:12;23.92;;;9.30;;
46407;SDS011;32110;45.724;21.276;2023-04-04T08:59:38;19.27;;;8.65;;
46407;SDS011;32110;45.724;21.276;2023-04-04T09:02:14;19.88;;;8.90;;
46407;SDS011;32110;45.724;21.276;2023-04-04T09:04:41;16.02;;;7.88;;
46407;SDS011;32110;45.724;21.276;2023-04-04T09:07:07;12.65;;;6.45;;
46407;SDS011;32110;45.724;21.276;2023-04-04T09:09:33;12.10;;;7.22;;
46407;SDS011;32110;45.724;21.276;2023-04-04T09:11:59;13.45;;;7.63;;
46407;SDS011;32110;45.724;21.276;2023-04-04T09:14:25;12.27;;;6.45;;
46407;SDS011;32110;45.724;21.276;2023-04-04T09:16:51;11.68;;;6.38;;
46407;SDS011;32110;45.724;21.276;2023-04-04T09:19:17;12.38;;;7.22;;
46407;SDS011;32110;45.724;21.276;2023-04-04T09:21:46;14.37;;;7.60;;
46407;SDS011;32110;45.724;21.276;2023-04-04T09:24:11;13.23;;;7.22;;
46407;SDS011;32110;45.724;21.276;2023-04-04T09:26:46;12.07;;;6.83;;
46407;SDS011;32110;45.724;21.276;2023-04-04T09:29:12;12.18;;;6.30;;
46407;SDS011;32110;45.724;21.276;2023-04-04T09:31:38;13.20;;;6.40;;
46407;SDS011;32110;45.724;21.276;2023-04-04T09:34:03;12.18;;;6.85;;
46407;SDS011;32110;45.724;21.276;2023-04-04T09:36:28;11.98;;;6.43;;
46407;SDS011;32110;45.724;21.276;2023-04-04T09:38:55;8.70;;;5.30;;
46407;SDS011;32110;45.724;21.276;2023-04-04T09:41:21;12.50;;;6.53;;
46407;SDS011;32110;45.724;21.276;2023-04-04T09:43:46;11.65;;;6.45;;
46407;SDS011;32110;45.724;21.276;2023-04-04T09:46:12;11.98;;;6.50;;
46407;SDS011;32110;45.724;21.276;2023-04-04T09:48:39;13.20;;;7.15;;
46407;SDS011;32110;45.724;21.276;2023-04-04T09:51:06;11.82;;;6.70;;
46407;SDS011;32110;45.724;21.276;2023-04-04T09:53:34;11.95;;;6.88;;
46407;SDS011;32110;45.724;21.276;2023-04-04T09:58:27;13.88;;;7.18;;
46407;SDS011;32110;45.724;21.276;2023-04-04T10:00:56;14.90;;;7.63;;
46407;SDS011;32110;45.724;21.276;2023-04-04T10:03:22;18.00;;;8.50;;
46407;SDS011;32110;45.724;21.276;2023-04-04T10:05:53;12.50;;;6.28;;
46407;SDS011;32110;45.724;21.276;2023-04-04T10:08:22;17.10;;;8.07;;
46407;SDS011;32110;45.724;21.276;2023-04-04T10:10:50;12.77;;;7.40;;
46407;SDS011;32110;45.724;21.276;2023-04-04T10:13:25;14.93;;;7.67;;
46407;SDS011;32110;45.724;21.276;2023-04-04T10:15:52;15.13;;;7.53;;
46407;SDS011;32110;45.724;21.276;2023-04-04T10:18:18;13.05;;;7.60;;
46407;SDS011;32110;45.724;21.276;2023-04-04T10:20:44;11.57;;;6.63;;
46407;SDS011;32110;45.724;21.276;2023-04-04T10:23:10;20.85;;;8.88;;
46407;SDS011;32110;45.724;21.276;2023-04-04T10:25:36;14.57;;;8.07;;
46407;SDS011;32110;45.724;21.276;2023-04-04T10:28:02;15.70;;;7.47;;
46407;SDS011;32110;45.724;21.276;2023-04-04T10:30:27;14.68;;;7.47;;
46407;SDS011;32110;45.724;21.276;2023-04-04T10:32:56;17.42;;;9.10;;
46407;SDS011;32110;45.724;21.276;2023-04-04T10:35:24;14.50;;;8.65;;
46407;SDS011;32110;45.724;21.276;2023-04-04T10:37:56;13.82;;;7.90;;
46407;SDS011;32110;45.724;21.276;2023-04-04T10:40:22;17.10;;;8.05;;
46407;SDS011;32110;45.724;21.276;2023-04-04T10:42:48;12.50;;;7.40;;
46407;SDS011;32110;45.724;21.276;2023-04-04T10:45:14;15.43;;;8.75;;
46407;SDS011;32110;45.724;21.276;2023-04-04T10:47:41;12.90;;;8.02;;
46407;SDS011;32110;45.724;21.276;2023-04-04T10:50:06;14.85;;;8.30;;
46407;SDS011;32110;45.724;21.276;2023-04-04T10:52:34;10.65;;;6.72;;
46407;SDS011;32110;45.724;21.276;2023-04-04T10:55:01;13.05;;;6.80;;
46407;SDS011;32110;45.724;21.276;2023-04-04T10:57:28;14.05;;;7.93;;
46407;SDS011;32110;45.724;21.276;2023-04-04T11:00:02;13.70;;;8.00;;
46407;SDS011;32110;45.724;21.276;2023-04-04T11:05:11;12.10;;;7.00;;
46407;SDS011;32110;45.724;21.276;2023-04-04T11:07:36;12.80;;;7.30;;
46407;SDS011;32110;45.724;21.276;2023-04-04T11:10:11;12.75;;;7.53;;
46407;SDS011;32110;45.724;21.276;2023-04-04T11:12:40;16.45;;;7.82;;
46407;SDS011;32110;45.724;21.276;2023-04-04T11:15:09;12.95;;;7.50;;
46407;SDS011;32110;45.724;21.276;2023-04-04T11:17:52;13.82;;;8.32;;
46407;SDS011;32110;45.724;21.276;2023-04-04T11:20:35;12.82;;;6.82;;
46407;SDS011;32110;45.724;21.276;2023-04-04T11:23:07;15.57;;;7.93;;
46407;SDS011;32110;45.724;21.276;2023-04-04T11:27:58;10.90;;;6.72;;
46407;SDS011;32110;45.724;21.276;2023-04-04T11:30:27;11.23;;;7.15;;
46407;SDS011;32110;45.724;21.276;2023-04-04T11:32:57;10.68;;;6.55;;
46407;SDS011;32110;45.724;21.276;2023-04-04T11:35:25;15.32;;;7.47;;
46407;SDS011;32110;45.724;21.276;2023-04-04T11:40:19;10.63;;;6.75;;
46407;SDS011;32110;45.724;21.276;2023-04-04T11:42:50;11.85;;;7.35;;
46407;SDS011;32110;45.724;21.276;2023-04-04T11:45:19;11.15;;;6.28;;
46407;SDS011;32110;45.724;21.276;2023-04-04T11:47:48;13.07;;;7.68;;
46407;SDS011;32110;45.724;21.276;2023-04-04T11:50:13;14.20;;;8.63;;
46407;SDS011;32110;45.724;21.276;2023-04-04T11:52:40;14.80;;;7.70;;
46407;SDS011;32110;45.724;21.276;2023-04-04T11:55:15;12.07;;;6.60;;
46407;SDS011;32110;45.724;21.276;2023-04-04T11:57:41;19.52;;;8.30;;
46407;SDS011;32110;45.724;21.276;2023-04-04T12:00:07;23.23;;;9.88;;
46407;SDS011;32110;45.724;21.276;2023-04-04T12:02:33;11.05;;;6.90;;
46407;SDS011;32110;45.724;21.276;2023-04-04T12:04:59;10.60;;;6.50;;
46407;SDS011;32110;45.724;21.276;2023-04-04T12:07:24;19.00;;;7.75;;
46407;SDS011;32110;45.724;21.276;2023-04-04T12:09:50;17.63;;;7.80;;
46407;SDS011;32110;45.724;21.276;2023-04-04T12:12:16;10.23;;;5.72;;
46407;SDS011;32110;45.724;21.276;2023-04-04T12:14:41;19.50;;;8.27;;
46407;SDS011;32110;45.724;21.276;2023-04-04T12:17:07;13.73;;;8.07;;
46407;SDS011;32110;45.724;21.276;2023-04-04T12:19:35;11.85;;;6.47;;
46407;SDS011;32110;45.724;21.276;2023-04-04T12:22:01;11.63;;;6.80;;
46407;SDS011;32110;45.724;21.276;2023-04-04T12:24:27;14.07;;;7.28;;
46407;SDS011;32110;45.724;21.276;2023-04-04T12:26:52;14.98;;;7.45;;
46407;SDS011;32110;45.724;21.276;2023-04-04T12:29:19;11.60;;;7.03;;
46407;SDS011;32110;45.724;21.276;2023-04-04T12:31:44;11.32;;;6.82;;
46407;SDS011;32110;45.724;21.276;2023-04-04T12:34:17;10.10;;;6.15;;
46407;SDS011;32110;45.724;21.276;2023-04-04T12:36:45;12.13;;;7.55;;
46407;SDS011;32110;45.724;21.276;2023-04-04T12:39:10;11.50;;;6.97;;
46407;SDS011;32110;45.724;21.276;2023-04-04T12:41:45;12.02;;;7.38;;
46407;SDS011;32110;45.724;21.276;2023-04-04T12:44:11;13.70;;;7.75;;
46407;SDS011;32110;45.724;21.276;2023-04-04T12:46:48;9.27;;;6.00;;
46407;SDS011;32110;45.724;21.276;2023-04-04T12:49:14;9.17;;;6.10;;
46407;SDS011;32110;45.724;21.276;2023-04-04T12:51:39;8.23;;;5.10;;
46407;SDS011;32110;45.724;21.276;2023-04-04T12:54:05;11.88;;;7.43;;
46407;SDS011;32110;45.724;21.276;2023-04-04T12:56:31;11.07;;;6.40;;
46407;SDS011;32110;45.724;21.276;2023-04-04T12:59:03;14.52;;;8.43;;
46407;SDS011;32110;45.724;21.276;2023-04-04T13:01:31;22.60;;;11.05;;
46407;SDS011;32110;45.724;21.276;2023-04-04T13:04:01;12.50;;;7.55;;
46407;SDS011;32110;45.724;21.276;2023-04-04T13:06:30;11.55;;;6.53;;
46407;SDS011;32110;45.724;21.276;2023-04-04T13:08:56;12.95;;;7.65;;
46407;SDS011;32110;45.724;21.276;2023-04-04T13:11:22;9.50;;;5.70;;
46407;SDS011;32110;45.724;21.276;2023-04-04T13:13:58;9.65;;;5.38;;
46407;SDS011;32110;45.724;21.276;2023-04-04T13:21:20;20.38;;;8.80;;
46407;SDS011;32110;45.724;21.276;2023-04-04T13:23:46;10.38;;;6.15;;
46407;SDS011;32110;45.724;21.276;2023-04-04T13:26:11;9.68;;;6.35;;
46407;SDS011;32110;45.724;21.276;2023-04-04T13:28:37;9.23;;;5.95;;
46407;SDS011;32110;45.724;21.276;2023-04-04T13:31:11;9.75;;;5.63;;
46407;SDS011;32110;45.724;21.276;2023-04-04T13:33:39;10.05;;;6.18;;
46407;SDS011;32110;45.724;21.276;2023-04-04T13:36:05;9.18;;;5.63;;
46407;SDS011;32110;45.724;21.276;2023-04-04T13:38:30;9.32;;;5.90;;
46407;SDS011;32110;45.724;21.276;2023-04-04T13:40:56;10.15;;;6.53;;
46407;SDS011;32110;45.724;21.276;2023-04-04T13:43:22;9.90;;;5.95;;
46407;SDS011;32110;45.724;21.276;2023-04-04T13:45:48;9.57;;;5.47;;
46407;SDS011;32110;45.724;21.276;2023-04-04T13:48:13;8.95;;;5.93;;
46407;SDS011;32110;45.724;21.276;2023-04-04T13:50:40;9.65;;;5.60;;
46407;SDS011;32110;45.724;21.276;2023-04-04T13:53:07;6.87;;;4.83;;
46407;SDS011;32110;45.724;21.276;2023-04-04T13:55:34;11.27;;;5.03;;
46407;SDS011;32110;45.724;21.276;2023-04-04T13:58:00;8.73;;;5.72;;
46407;SDS011;32110;45.724;21.276;2023-04-04T14:00:25;14.85;;;6.88;;
46407;SDS011;32110;45.724;21.276;2023-04-04T14:02:52;9.27;;;5.90;;
46407;SDS011;32110;45.724;21.276;2023-04-04T14:05:17;8.73;;;5.30;;
46407;SDS011;32110;45.724;21.276;2023-04-04T14:07:43;31.33;;;6.57;;
46407;SDS011;32110;45.724;21.276;2023-04-04T14:10:09;11.50;;;6.78;;
46407;SDS011;32110;45.724;21.276;2023-04-04T14:12:35;11.45;;;6.50;;
46407;SDS011;32110;45.724;21.276;2023-04-04T14:15:02;10.77;;;6.90;;
46407;SDS011;32110;45.724;21.276;2023-04-04T14:17:36;11.82;;;6.90;;
46407;SDS011;32110;45.724;21.276;2023-04-04T14:20:02;10.30;;;5.43;;
46407;SDS011;32110;45.724;21.276;2023-04-04T14:22:28;9.38;;;6.22;;
46407;SDS011;32110;45.724;21.276;2023-04-04T14:24:53;17.10;;;7.95;;
46407;SDS011;32110;45.724;21.276;2023-04-04T14:27:19;10.98;;;6.32;;
46407;SDS011;32110;45.724;21.276;2023-04-04T14:29:44;11.63;;;6.38;;
46407;SDS011;32110;45.724;21.276;2023-04-04T14:32:09;10.80;;;6.65;;
46407;SDS011;32110;45.724;21.276;2023-04-04T14:34:35;10.98;;;6.93;;
46407;SDS011;32110;45.724;21.276;2023-04-04T14:37:01;11.88;;;7.32;;
46407;SDS011;32110;45.724;21.276;2023-04-04T14:39:27;13.95;;;7.55;;